sensor_id;sensor_type;location;lat;lon;timestamp;temperature;humidity
3086;DHT22;52812;48.960;9.108;2023-07-02T00:00:19;16.60;99.90
3086;DHT22;52812;48.960;9.108;2023-07-02T00:02:45;16.60;99.90
3086;DHT22;52812;48.960;9.108;2023-07-02T00:05:10;16.50;99.90
3086;DHT22;52812;48.960;9.108;2023-07-02T00:07:36;16.40;99.90
3086;DHT22;52812;48.960;9.108;2023-07-02T00:10:03;16.40;99.90
3086;DHT22;52812;48.960;9.108;2023-07-02T00:12:29;16.40;99.90
3086;DHT22;52812;48.960;9.108;2023-07-02T00:14:55;16.30;99.90
3086;DHT22;52812;48.960;9.108;2023-07-02T00:17:21;16.20;99.90
3086;DHT22;52812;48.960;9.108;2023-07-02T00:19:46;16.10;99.90
3086;DHT22;52812;48.960;9.108;2023-07-02T00:22:12;16.10;99.90
3086;DHT22;52812;48.960;9.108;2023-07-02T00:24:37;16.00;99.90
3086;DHT22;52812;48.960;9.108;2023-07-02T00:27:04;15.80;99.90
3086;DHT22;52812;48.960;9.108;2023-07-02T00:29:29;15.80;99.90
3086;DHT22;52812;48.960;9.108;2023-07-02T00:31:55;15.80;99.90
3086;DHT22;52812;48.960;9.108;2023-07-02T00:34:20;15.70;99.90
3086;DHT22;52812;48.960;9.108;2023-07-02T00:36:46;15.70;99.90
3086;DHT22;52812;48.960;9.108;2023-07-02T00:39:12;15.70;99.90
3086;DHT22;52812;48.960;9.108;2023-07-02T00:41:38;15.80;99.90
3086;DHT22;52812;48.960;9.108;2023-07-02T00:44:03;15.90;99.90
3086;DHT22;52812;48.960;9.108;2023-07-02T00:46:30;15.90;99.90
3086;DHT22;52812;48.960;9.108;2023-07-02T00:48:56;15.90;99.90
3086;DHT22;52812;48.960;9.108;2023-07-02T00:51:24;15.80;99.90
3086;DHT22;52812;48.960;9.108;2023-07-02T00:53:52;15.90;99.90
3086;DHT22;52812;48.960;9.108;2023-07-02T00:56:18;15.80;99.90
3086;DHT22;52812;48.960;9.108;2023-07-02T00:58:46;15.80;99.90
3086;DHT22;52812;48.960;9.108;2023-07-02T01:01:24;15.80;99.90
3086;DHT22;52812;48.960;9.108;2023-07-02T01:04:03;15.70;99.90
3086;DHT22;52812;48.960;9.108;2023-07-02T01:06:34;15.80;99.90
3086;DHT22;52812;48.960;9.108;2023-07-02T01:09:05;15.80;99.90
3086;DHT22;52812;48.960;9.108;2023-07-02T01:11:42;15.70;99.90
3086;DHT22;52812;48.960;9.108;2023-07-02T01:14:12;15.70;99.90
3086;DHT22;52812;48.960;9.108;2023-07-02T01:16:41;15.70;99.90
3086;DHT22;52812;48.960;9.108;2023-07-02T01:19:18;15.60;99.90
3086;DHT22;52812;48.960;9.108;2023-07-02T01:21:46;15.60;99.90
3086;DHT22;52812;48.960;9.108;2023-07-02T01:24:13;15.60;99.90
3086;DHT22;52812;48.960;9.108;2023-07-02T01:26:39;15.60;99.90
3086;DHT22;52812;48.960;9.108;2023-07-02T01:29:19;15.60;99.90
3086;DHT22;52812;48.960;9.108;2023-07-02T01:31:46;15.60;99.90
3086;DHT22;52812;48.960;9.108;2023-07-02T01:34:12;15.50;99.90
3086;DHT22;52812;48.960;9.108;2023-07-02T01:36:39;15.50;99.90
3086;DHT22;52812;48.960;9.108;2023-07-02T01:39:05;15.50;99.90
3086;DHT22;52812;48.960;9.108;2023-07-02T01:41:36;15.50;99.90
3086;DHT22;52812;48.960;9.108;2023-07-02T01:44:03;15.50;99.90
3086;DHT22;52812;48.960;9.108;2023-07-02T01:46:28;15.50;99.90
3086;DHT22;52812;48.960;9.108;2023-07-02T01:48:54;15.50;99.90
3086;DHT22;52812;48.960;9.108;2023-07-02T01:51:19;15.50;99.90
3086;DHT22;52812;48.960;9.108;2023-07-02T01:53:45;15.50;99.90
3086;DHT22;52812;48.960;9.108;2023-07-02T01:56:11;15.50;99.90
3086;DHT22;52812;48.960;9.108;2023-07-02T01:58:36;15.50;99.90
3086;DHT22;52812;48.960;9.108;2023-07-02T02:01:02;15.50;99.90
3086;DHT22;52812;48.960;9.108;2023-07-02T02:03:27;15.50;99.90
3086;DHT22;52812;48.960;9.108;2023-07-02T02:05:53;15.50;99.90
3086;DHT22;52812;48.960;9.108;2023-07-02T02:08:18;15.60;99.90
3086;DHT22;52812;48.960;9.108;2023-07-02T02:10:44;15.60;99.90
3086;DHT22;52812;48.960;9.108;2023-07-02T02:13:09;15.60;99.90
3086;DHT22;52812;48.960;9.108;2023-07-02T02:15:35;15.50;99.90
3086;DHT22;52812;48.960;9.108;2023-07-02T02:18:00;15.60;99.90
3086;DHT22;52812;48.960;9.108;2023-07-02T02:20:26;15.70;99.90
3086;DHT22;52812;48.960;9.108;2023-07-02T02:22:51;15.80;99.90
3086;DHT22;52812;48.960;9.108;2023-07-02T02:25:17;15.80;99.90
3086;DHT22;52812;48.960;9.108;2023-07-02T02:27:42;15.80;99.90
3086;DHT22;52812;48.960;9.108;2023-07-02T02:30:08;15.90;99.90
3086;DHT22;52812;48.960;9.108;2023-07-02T02:32:34;15.90;99.90
3086;DHT22;52812;48.960;9.108;2023-07-02T02:35:00;16.00;99.90
3086;DHT22;52812;48.960;9.108;2023-07-02T02:37:25;16.10;99.90
3086;DHT22;52812;48.960;9.108;2023-07-02T02:39:51;16.10;99.90
3086;DHT22;52812;48.960;9.108;2023-07-02T02:42:16;16.10;99.90
3086;DHT22;52812;48.960;9.108;2023-07-02T02:44:42;16.10;99.90
3086;DHT22;52812;48.960;9.108;2023-07-02T02:47:07;16.20;99.90
3086;DHT22;52812;48.960;9.108;2023-07-02T02:49:33;16.10;99.90
3086;DHT22;52812;48.960;9.108;2023-07-02T02:51:58;16.20;99.90
3086;DHT22;52812;48.960;9.108;2023-07-02T02:54:24;16.20;99.90
3086;DHT22;52812;48.960;9.108;2023-07-02T02:56:49;16.20;99.90
3086;DHT22;52812;48.960;9.108;2023-07-02T02:59:15;16.10;99.90
3086;DHT22;52812;48.960;9.108;2023-07-02T03:01:40;16.00;99.90
3086;DHT22;52812;48.960;9.108;2023-07-02T03:04:06;15.90;99.90
3086;DHT22;52812;48.960;9.108;2023-07-02T03:06:33;15.90;99.90
3086;DHT22;52812;48.960;9.108;2023-07-02T03:08:59;15.80;99.90
3086;DHT22;52812;48.960;9.108;2023-07-02T03:11:24;15.80;99.90
3086;DHT22;52812;48.960;9.108;2023-07-02T03:13:50;15.80;99.90
3086;DHT22;52812;48.960;9.108;2023-07-02T03:16:15;15.80;99.90
3086;DHT22;52812;48.960;9.108;2023-07-02T03:18:41;15.80;99.90
3086;DHT22;52812;48.960;9.108;2023-07-02T03:21:06;15.80;99.90
3086;DHT22;52812;48.960;9.108;2023-07-02T03:23:32;15.80;99.90
3086;DHT22;52812;48.960;9.108;2023-07-02T03:25:58;15.80;99.90
3086;DHT22;52812;48.960;9.108;2023-07-02T03:28:23;15.80;99.90
3086;DHT22;52812;48.960;9.108;2023-07-02T03:30:49;15.80;99.90
3086;DHT22;52812;48.960;9.108;2023-07-02T03:33:14;15.70;99.90
3086;DHT22;52812;48.960;9.108;2023-07-02T03:35:40;15.70;99.90
3086;DHT22;52812;48.960;9.108;2023-07-02T03:38:05;15.70;99.90
3086;DHT22;52812;48.960;9.108;2023-07-02T03:40:31;15.70;99.90
3086;DHT22;52812;48.960;9.108;2023-07-02T03:42:57;15.60;99.90
3086;DHT22;52812;48.960;9.108;2023-07-02T03:45:23;15.60;99.90
3086;DHT22;52812;48.960;9.108;2023-07-02T03:47:48;15.60;99.90
3086;DHT22;52812;48.960;9.108;2023-07-02T03:50:14;15.60;99.90
3086;DHT22;52812;48.960;9.108;2023-07-02T03:52:39;15.60;99.90
3086;DHT22;52812;48.960;9.108;2023-07-02T03:55:05;15.50;99.90
3086;DHT22;52812;48.960;9.108;2023-07-02T03:57:31;15.50;99.90
3086;DHT22;52812;48.960;9.108;2023-07-02T03:59:57;15.50;99.90
3086;DHT22;52812;48.960;9.108;2023-07-02T04:02:22;15.60;99.90
3086;DHT22;52812;48.960;9.108;2023-07-02T04:04:48;15.50;99.90
3086;DHT22;52812;48.960;9.108;2023-07-02T04:07:13;15.50;99.90
3086;DHT22;52812;48.960;9.108;2023-07-02T04:09:39;15.50;99.90
3086;DHT22;52812;48.960;9.108;2023-07-02T04:12:05;15.60;99.90
3086;DHT22;52812;48.960;9.108;2023-07-02T04:14:30;15.60;99.90
3086;DHT22;52812;48.960;9.108;2023-07-02T04:16:56;15.60;99.90
3086;DHT22;52812;48.960;9.108;2023-07-02T04:19:21;15.60;99.90
3086;DHT22;52812;48.960;9.108;2023-07-02T04:21:47;15.60;99.90
3086;DHT22;52812;48.960;9.108;2023-07-02T04:24:13;15.70;99.90
3086;DHT22;52812;48.960;9.108;2023-07-02T04:26:38;15.70;99.90
3086;DHT22;52812;48.960;9.108;2023-07-02T04:29:08;15.80;99.90
3086;DHT22;52812;48.960;9.108;2023-07-02T04:31:34;15.80;99.90
3086;DHT22;52812;48.960;9.108;2023-07-02T04:33:59;15.80;99.90
3086;DHT22;52812;48.960;9.108;2023-07-02T04:36:25;15.80;99.90
3086;DHT22;52812;48.960;9.108;2023-07-02T04:38:51;15.80;99.90
3086;DHT22;52812;48.960;9.108;2023-07-02T04:41:18;15.90;99.90
3086;DHT22;52812;48.960;9.108;2023-07-02T04:43:43;16.00;99.90
3086;DHT22;52812;48.960;9.108;2023-07-02T04:46:10;16.00;99.90
3086;DHT22;52812;48.960;9.108;2023-07-02T04:48:37;16.00;99.90
3086;DHT22;52812;48.960;9.108;2023-07-02T04:51:03;16.10;99.90
3086;DHT22;52812;48.960;9.108;2023-07-02T04:53:29;16.10;99.90
3086;DHT22;52812;48.960;9.108;2023-07-02T04:55:54;16.20;99.90
3086;DHT22;52812;48.960;9.108;2023-07-02T04:58:20;16.20;99.90
3086;DHT22;52812;48.960;9.108;2023-07-02T05:00:46;16.30;99.90
3086;DHT22;52812;48.960;9.108;2023-07-02T05:03:11;16.50;99.90
3086;DHT22;52812;48.960;9.108;2023-07-02T05:05:37;16.60;99.90
3086;DHT22;52812;48.960;9.108;2023-07-02T05:08:03;16.80;99.90
3086;DHT22;52812;48.960;9.108;2023-07-02T05:10:30;17.00;99.90
3086;DHT22;52812;48.960;9.108;2023-07-02T05:12:55;17.20;99.90
3086;DHT22;52812;48.960;9.108;2023-07-02T05:15:21;17.40;99.90
3086;DHT22;52812;48.960;9.108;2023-07-02T05:17:46;17.40;99.90
3086;DHT22;52812;48.960;9.108;2023-07-02T05:20:12;17.40;99.90
3086;DHT22;52812;48.960;9.108;2023-07-02T05:22:38;17.50;99.90
3086;DHT22;52812;48.960;9.108;2023-07-02T05:25:04;17.50;99.90
3086;DHT22;52812;48.960;9.108;2023-07-02T05:27:29;17.50;99.90
3086;DHT22;52812;48.960;9.108;2023-07-02T05:29:55;17.50;99.90
3086;DHT22;52812;48.960;9.108;2023-07-02T05:32:20;17.50;99.90
3086;DHT22;52812;48.960;9.108;2023-07-02T05:34:46;17.50;99.90
3086;DHT22;52812;48.960;9.108;2023-07-02T05:37:12;17.60;99.90
3086;DHT22;52812;48.960;9.108;2023-07-02T05:39:37;17.70;99.90
3086;DHT22;52812;48.960;9.108;2023-07-02T05:42:04;17.70;99.90
3086;DHT22;52812;48.960;9.108;2023-07-02T05:44:29;17.70;99.90
3086;DHT22;52812;48.960;9.108;2023-07-02T05:46:55;17.70;99.90
3086;DHT22;52812;48.960;9.108;2023-07-02T05:49:21;17.80;99.90
3086;DHT22;52812;48.960;9.108;2023-07-02T05:51:46;18.00;99.90
3086;DHT22;52812;48.960;9.108;2023-07-02T05:54:12;18.10;99.90
3086;DHT22;52812;48.960;9.108;2023-07-02T05:56:38;18.30;99.90
3086;DHT22;52812;48.960;9.108;2023-07-02T05:59:03;18.80;99.90
3086;DHT22;52812;48.960;9.108;2023-07-02T06:01:29;18.70;99.90
3086;DHT22;52812;48.960;9.108;2023-07-02T06:03:55;19.00;99.90
3086;DHT22;52812;48.960;9.108;2023-07-02T06:06:21;19.10;99.90
3086;DHT22;52812;48.960;9.108;2023-07-02T06:08:48;19.00;99.90
3086;DHT22;52812;48.960;9.108;2023-07-02T06:11:15;18.80;99.90
3086;DHT22;52812;48.960;9.108;2023-07-02T06:13:40;18.70;99.90
3086;DHT22;52812;48.960;9.108;2023-07-02T06:16:06;19.00;99.90
3086;DHT22;52812;48.960;9.108;2023-07-02T06:18:32;19.50;99.90
3086;DHT22;52812;48.960;9.108;2023-07-02T06:20:57;19.40;99.90
3086;DHT22;52812;48.960;9.108;2023-07-02T06:23:23;19.70;99.90
3086;DHT22;52812;48.960;9.108;2023-07-02T06:25:48;20.30;99.90
3086;DHT22;52812;48.960;9.108;2023-07-02T06:28:17;20.70;99.90
3086;DHT22;52812;48.960;9.108;2023-07-02T06:30:42;21.30;99.90
3086;DHT22;52812;48.960;9.108;2023-07-02T06:33:08;21.90;99.90
3086;DHT22;52812;48.960;9.108;2023-07-02T06:35:34;22.10;99.90
3086;DHT22;52812;48.960;9.108;2023-07-02T06:37:59;22.50;99.90
3086;DHT22;52812;48.960;9.108;2023-07-02T06:40:25;22.50;99.90
3086;DHT22;52812;48.960;9.108;2023-07-02T06:42:50;22.60;99.90
3086;DHT22;52812;48.960;9.108;2023-07-02T06:45:16;22.80;99.90
3086;DHT22;52812;48.960;9.108;2023-07-02T06:47:42;23.20;99.90
3086;DHT22;52812;48.960;9.108;2023-07-02T06:50:07;23.00;99.90
3086;DHT22;52812;48.960;9.108;2023-07-02T06:52:33;23.00;99.90
3086;DHT22;52812;48.960;9.108;2023-07-02T06:54:59;23.20;99.90
3086;DHT22;52812;48.960;9.108;2023-07-02T06:57:24;23.30;99.90
3086;DHT22;52812;48.960;9.108;2023-07-02T06:59:50;22.90;99.90
3086;DHT22;52812;48.960;9.108;2023-07-02T07:02:16;22.90;99.90
3086;DHT22;52812;48.960;9.108;2023-07-02T07:04:42;23.40;99.90
3086;DHT22;52812;48.960;9.108;2023-07-02T07:07:07;23.60;99.90
3086;DHT22;52812;48.960;9.108;2023-07-02T07:09:33;24.00;99.90
3086;DHT22;52812;48.960;9.108;2023-07-02T07:11:59;24.00;99.90
3086;DHT22;52812;48.960;9.108;2023-07-02T07:14:24;24.40;99.90
3086;DHT22;52812;48.960;9.108;2023-07-02T07:16:50;24.30;99.90
3086;DHT22;52812;48.960;9.108;2023-07-02T07:19:16;23.90;99.90
3086;DHT22;52812;48.960;9.108;2023-07-02T07:21:42;23.70;99.90
3086;DHT22;52812;48.960;9.108;2023-07-02T07:24:09;24.00;99.90
3086;DHT22;52812;48.960;9.108;2023-07-02T07:26:34;23.80;99.90
3086;DHT22;52812;48.960;9.108;2023-07-02T07:29:00;24.70;99.90
3086;DHT22;52812;48.960;9.108;2023-07-02T07:31:25;24.80;99.90
3086;DHT22;52812;48.960;9.108;2023-07-02T07:33:51;24.90;99.90
3086;DHT22;52812;48.960;9.108;2023-07-02T07:36:17;25.10;99.90
3086;DHT22;52812;48.960;9.108;2023-07-02T07:38:43;24.90;99.90
3086;DHT22;52812;48.960;9.108;2023-07-02T07:41:09;25.50;99.90
3086;DHT22;52812;48.960;9.108;2023-07-02T07:43:35;26.00;99.90
3086;DHT22;52812;48.960;9.108;2023-07-02T07:46:00;25.70;99.90
3086;DHT22;52812;48.960;9.108;2023-07-02T07:48:26;25.90;99.90
3086;DHT22;52812;48.960;9.108;2023-07-02T07:50:52;25.40;99.90
3086;DHT22;52812;48.960;9.108;2023-07-02T07:53:18;25.20;99.90
3086;DHT22;52812;48.960;9.108;2023-07-02T07:55:43;25.10;99.90
3086;DHT22;52812;48.960;9.108;2023-07-02T07:58:09;25.00;99.90
3086;DHT22;52812;48.960;9.108;2023-07-02T08:00:35;24.60;99.90
3086;DHT22;52812;48.960;9.108;2023-07-02T08:03:02;24.40;99.90
3086;DHT22;52812;48.960;9.108;2023-07-02T08:05:29;23.80;99.90
3086;DHT22;52812;48.960;9.108;2023-07-02T08:07:55;23.60;99.90
3086;DHT22;52812;48.960;9.108;2023-07-02T08:10:21;23.40;99.90
3086;DHT22;52812;48.960;9.108;2023-07-02T08:12:46;23.60;99.90
3086;DHT22;52812;48.960;9.108;2023-07-02T08:15:13;23.70;99.90
3086;DHT22;52812;48.960;9.108;2023-07-02T08:17:39;24.50;99.90
3086;DHT22;52812;48.960;9.108;2023-07-02T08:20:05;24.70;99.90
3086;DHT22;52812;48.960;9.108;2023-07-02T08:22:35;24.20;99.90
3086;DHT22;52812;48.960;9.108;2023-07-02T08:25:01;24.20;99.90
3086;DHT22;52812;48.960;9.108;2023-07-02T08:27:27;23.30;99.90
3086;DHT22;52812;48.960;9.108;2023-07-02T08:29:53;23.30;99.90
3086;DHT22;52812;48.960;9.108;2023-07-02T08:32:18;23.00;99.90
3086;DHT22;52812;48.960;9.108;2023-07-02T08:34:44;23.70;99.90
3086;DHT22;52812;48.960;9.108;2023-07-02T08:37:10;24.60;99.90
3086;DHT22;52812;48.960;9.108;2023-07-02T08:39:36;25.20;99.90
3086;DHT22;52812;48.960;9.108;2023-07-02T08:42:03;25.60;99.90
3086;DHT22;52812;48.960;9.108;2023-07-02T08:44:28;25.90;99.90
3086;DHT22;52812;48.960;9.108;2023-07-02T08:46:54;26.50;99.90
3086;DHT22;52812;48.960;9.108;2023-07-02T08:49:22;26.40;99.90
3086;DHT22;52812;48.960;9.108;2023-07-02T08:51:48;25.30;99.90
3086;DHT22;52812;48.960;9.108;2023-07-02T08:54:14;25.30;99.90
3086;DHT22;52812;48.960;9.108;2023-07-02T08:56:40;25.80;99.90
3086;DHT22;52812;48.960;9.108;2023-07-02T08:59:09;25.80;99.90
3086;DHT22;52812;48.960;9.108;2023-07-02T09:01:46;25.10;99.90
3086;DHT22;52812;48.960;9.108;2023-07-02T09:04:30;24.70;99.90
3086;DHT22;52812;48.960;9.108;2023-07-02T09:07:10;24.50;99.90
3086;DHT22;52812;48.960;9.108;2023-07-02T09:12:29;23.90;99.90
3086;DHT22;52812;48.960;9.108;2023-07-02T09:15:02;24.40;99.90
3086;DHT22;52812;48.960;9.108;2023-07-02T09:17:30;24.90;99.90
3086;DHT22;52812;48.960;9.108;2023-07-02T09:19:57;25.30;99.90
3086;DHT22;52812;48.960;9.108;2023-07-02T09:22:26;25.70;99.90
3086;DHT22;52812;48.960;9.108;2023-07-02T09:24:59;24.40;99.90
3086;DHT22;52812;48.960;9.108;2023-07-02T09:27:39;23.50;99.90
3086;DHT22;52812;48.960;9.108;2023-07-02T09:30:10;23.20;99.90
3086;DHT22;52812;48.960;9.108;2023-07-02T09:32:38;23.00;99.90
3086;DHT22;52812;48.960;9.108;2023-07-02T09:35:04;22.50;99.90
3086;DHT22;52812;48.960;9.108;2023-07-02T09:37:31;22.80;99.90
3086;DHT22;52812;48.960;9.108;2023-07-02T09:39:57;22.90;99.90
3086;DHT22;52812;48.960;9.108;2023-07-02T09:42:25;23.10;99.90
3086;DHT22;52812;48.960;9.108;2023-07-02T09:44:52;23.40;99.90
3086;DHT22;52812;48.960;9.108;2023-07-02T09:47:19;23.20;99.90
3086;DHT22;52812;48.960;9.108;2023-07-02T09:49:52;23.40;99.90
3086;DHT22;52812;48.960;9.108;2023-07-02T09:52:19;23.50;99.90
3086;DHT22;52812;48.960;9.108;2023-07-02T09:54:45;23.30;99.90
3086;DHT22;52812;48.960;9.108;2023-07-02T09:57:11;23.30;99.90
3086;DHT22;52812;48.960;9.108;2023-07-02T09:59:37;23.20;99.90
3086;DHT22;52812;48.960;9.108;2023-07-02T10:02:03;23.00;99.90
3086;DHT22;52812;48.960;9.108;2023-07-02T10:04:40;23.30;99.90
3086;DHT22;52812;48.960;9.108;2023-07-02T10:07:05;23.90;99.90
3086;DHT22;52812;48.960;9.108;2023-07-02T10:14:49;24.90;99.90
3086;DHT22;52812;48.960;9.108;2023-07-02T10:17:31;25.30;99.90
3086;DHT22;52812;48.960;9.108;2023-07-02T10:19:59;25.30;99.90
3086;DHT22;52812;48.960;9.108;2023-07-02T10:22:26;25.00;99.90
3086;DHT22;52812;48.960;9.108;2023-07-02T10:24:58;24.90;99.90
3086;DHT22;52812;48.960;9.108;2023-07-02T10:27:41;24.60;99.90
3086;DHT22;52812;48.960;9.108;2023-07-02T10:30:09;24.20;99.90
3086;DHT22;52812;48.960;9.108;2023-07-02T10:32:36;24.50;99.90
3086;DHT22;52812;48.960;9.108;2023-07-02T10:35:18;24.10;99.90
3086;DHT22;52812;48.960;9.108;2023-07-02T10:37:44;24.10;99.90
3086;DHT22;52812;48.960;9.108;2023-07-02T10:40:11;24.00;99.90
3086;DHT22;52812;48.960;9.108;2023-07-02T10:42:47;23.80;99.90
3086;DHT22;52812;48.960;9.108;2023-07-02T10:45:13;23.10;99.90
3086;DHT22;52812;48.960;9.108;2023-07-02T10:47:40;23.10;99.90
3086;DHT22;52812;48.960;9.108;2023-07-02T10:50:19;23.60;99.90
3086;DHT22;52812;48.960;9.108;2023-07-02T10:52:46;24.20;99.90
3086;DHT22;52812;48.960;9.108;2023-07-02T10:55:25;24.40;99.90
3086;DHT22;52812;48.960;9.108;2023-07-02T10:58:05;24.60;99.90
3086;DHT22;52812;48.960;9.108;2023-07-02T11:00:32;24.70;99.90
3086;DHT22;52812;48.960;9.108;2023-07-02T11:02:58;24.50;99.90
3086;DHT22;52812;48.960;9.108;2023-07-02T11:05:24;24.90;99.90
3086;DHT22;52812;48.960;9.108;2023-07-02T11:07:50;24.90;99.90
3086;DHT22;52812;48.960;9.108;2023-07-02T11:10:22;24.30;99.90
3086;DHT22;52812;48.960;9.108;2023-07-02T11:12:49;24.40;99.90
3086;DHT22;52812;48.960;9.108;2023-07-02T11:15:15;24.20;99.90
3086;DHT22;52812;48.960;9.108;2023-07-02T11:17:44;24.00;99.90
3086;DHT22;52812;48.960;9.108;2023-07-02T11:20:11;24.30;99.90
3086;DHT22;52812;48.960;9.108;2023-07-02T11:22:38;24.80;99.90
3086;DHT22;52812;48.960;9.108;2023-07-02T11:25:11;24.90;99.90
3086;DHT22;52812;48.960;9.108;2023-07-02T11:27:36;24.70;99.90
3086;DHT22;52812;48.960;9.108;2023-07-02T11:30:02;24.40;99.90
3086;DHT22;52812;48.960;9.108;2023-07-02T11:32:28;23.90;99.90
3086;DHT22;52812;48.960;9.108;2023-07-02T11:34:54;23.90;99.90
3086;DHT22;52812;48.960;9.108;2023-07-02T11:37:20;24.50;99.90
3086;DHT22;52812;48.960;9.108;2023-07-02T11:39:46;24.80;99.90
3086;DHT22;52812;48.960;9.108;2023-07-02T11:42:11;25.20;99.90
3086;DHT22;52812;48.960;9.108;2023-07-02T11:44:37;24.80;99.90
3086;DHT22;52812;48.960;9.108;2023-07-02T11:47:03;24.70;99.90
3086;DHT22;52812;48.960;9.108;2023-07-02T11:49:29;25.00;99.90
3086;DHT22;52812;48.960;9.108;2023-07-02T11:51:54;25.10;99.90
3086;DHT22;52812;48.960;9.108;2023-07-02T11:54:20;24.80;99.90
3086;DHT22;52812;48.960;9.108;2023-07-02T11:56:46;24.60;99.90
3086;DHT22;52812;48.960;9.108;2023-07-02T11:59:12;23.90;99.90
3086;DHT22;52812;48.960;9.108;2023-07-02T12:01:37;23.80;99.90
3086;DHT22;52812;48.960;9.108;2023-07-02T12:04:03;23.60;99.90
3086;DHT22;52812;48.960;9.108;2023-07-02T12:06:31;23.60;99.90
3086;DHT22;52812;48.960;9.108;2023-07-02T12:08:56;23.60;99.90
3086;DHT22;52812;48.960;9.108;2023-07-02T12:11:22;23.70;99.90
3086;DHT22;52812;48.960;9.108;2023-07-02T12:13:47;23.50;99.90
3086;DHT22;52812;48.960;9.108;2023-07-02T12:16:13;23.30;99.90
3086;DHT22;52812;48.960;9.108;2023-07-02T12:18:39;23.30;99.90
3086;DHT22;52812;48.960;9.108;2023-07-02T12:21:05;23.50;99.90
3086;DHT22;52812;48.960;9.108;2023-07-02T12:23:30;23.20;99.90
3086;DHT22;52812;48.960;9.108;2023-07-02T12:25:56;23.40;99.90
3086;DHT22;52812;48.960;9.108;2023-07-02T12:28:21;23.70;99.90
3086;DHT22;52812;48.960;9.108;2023-07-02T12:30:47;23.90;99.90
3086;DHT22;52812;48.960;9.108;2023-07-02T12:33:13;24.00;99.90
3086;DHT22;52812;48.960;9.108;2023-07-02T12:35:38;24.10;99.90
3086;DHT22;52812;48.960;9.108;2023-07-02T12:38:04;24.10;99.90
3086;DHT22;52812;48.960;9.108;2023-07-02T12:40:32;24.10;99.90
3086;DHT22;52812;48.960;9.108;2023-07-02T12:42:58;24.10;99.90
3086;DHT22;52812;48.960;9.108;2023-07-02T12:45:23;24.20;99.90
3086;DHT22;52812;48.960;9.108;2023-07-02T12:47:49;24.00;99.90
3086;DHT22;52812;48.960;9.108;2023-07-02T12:50:14;23.90;99.90
3086;DHT22;52812;48.960;9.108;2023-07-02T12:52:40;23.80;99.90
3086;DHT22;52812;48.960;9.108;2023-07-02T12:55:06;23.90;99.90
3086;DHT22;52812;48.960;9.108;2023-07-02T12:57:32;24.10;99.90
3086;DHT22;52812;48.960;9.108;2023-07-02T12:59:57;24.20;99.90
3086;DHT22;52812;48.960;9.108;2023-07-02T13:02:24;24.50;99.90
3086;DHT22;52812;48.960;9.108;2023-07-02T13:04:50;24.50;99.90
3086;DHT22;52812;48.960;9.108;2023-07-02T13:07:16;24.70;99.90
3086;DHT22;52812;48.960;9.108;2023-07-02T13:09:42;24.80;99.90
3086;DHT22;52812;48.960;9.108;2023-07-02T13:12:09;24.50;99.90
3086;DHT22;52812;48.960;9.108;2023-07-02T13:14:35;24.60;99.90
3086;DHT22;52812;48.960;9.108;2023-07-02T13:17:01;24.70;99.90
3086;DHT22;52812;48.960;9.108;2023-07-02T13:19:28;24.90;99.90
3086;DHT22;52812;48.960;9.108;2023-07-02T13:21:54;25.00;99.90
3086;DHT22;52812;48.960;9.108;2023-07-02T13:24:20;25.20;99.90
3086;DHT22;52812;48.960;9.108;2023-07-02T13:26:45;25.10;99.60
3086;DHT22;52812;48.960;9.108;2023-07-02T13:29:11;25.00;98.90
3086;DHT22;52812;48.960;9.108;2023-07-02T13:31:36;25.10;99.60
3086;DHT22;52812;48.960;9.108;2023-07-02T13:34:02;25.10;98.40
3086;DHT22;52812;48.960;9.108;2023-07-02T13:36:28;25.20;99.20
3086;DHT22;52812;48.960;9.108;2023-07-02T13:38:54;24.70;98.50
3086;DHT22;52812;48.960;9.108;2023-07-02T13:41:20;24.30;98.50
3086;DHT22;52812;48.960;9.108;2023-07-02T13:43:45;24.30;99.20
3086;DHT22;52812;48.960;9.108;2023-07-02T13:46:11;24.50;99.20
3086;DHT22;52812;48.960;9.108;2023-07-02T13:48:37;24.60;99.40
3086;DHT22;52812;48.960;9.108;2023-07-02T13:51:02;24.70;98.00
3086;DHT22;52812;48.960;9.108;2023-07-02T13:53:28;24.80;98.80
3086;DHT22;52812;48.960;9.108;2023-07-02T13:55:54;24.70;98.00
3086;DHT22;52812;48.960;9.108;2023-07-02T13:58:19;24.60;97.60
3086;DHT22;52812;48.960;9.108;2023-07-02T14:00:45;24.50;97.90
3086;DHT22;52812;48.960;9.108;2023-07-02T14:03:11;24.40;97.60
3086;DHT22;52812;48.960;9.108;2023-07-02T14:05:36;24.20;97.70
3086;DHT22;52812;48.960;9.108;2023-07-02T14:08:02;24.20;98.30
3086;DHT22;52812;48.960;9.108;2023-07-02T14:10:28;24.30;97.50
3086;DHT22;52812;48.960;9.108;2023-07-02T14:12:54;24.50;98.70
3086;DHT22;52812;48.960;9.108;2023-07-02T14:15:20;24.70;98.10
3086;DHT22;52812;48.960;9.108;2023-07-02T14:17:46;25.00;98.90
3086;DHT22;52812;48.960;9.108;2023-07-02T14:20:12;25.00;97.40
3086;DHT22;52812;48.960;9.108;2023-07-02T14:22:38;25.20;97.10
3086;DHT22;52812;48.960;9.108;2023-07-02T14:25:03;25.30;97.00
3086;DHT22;52812;48.960;9.108;2023-07-02T14:27:29;25.10;96.60
3086;DHT22;52812;48.960;9.108;2023-07-02T14:29:55;24.90;96.80
3086;DHT22;52812;48.960;9.108;2023-07-02T14:32:21;24.90;97.30
3086;DHT22;52812;48.960;9.108;2023-07-02T14:34:47;25.00;97.60
3086;DHT22;52812;48.960;9.108;2023-07-02T14:37:12;24.70;96.70
3086;DHT22;52812;48.960;9.108;2023-07-02T14:39:38;24.50;97.40
3086;DHT22;52812;48.960;9.108;2023-07-02T14:42:04;24.70;97.50
3086;DHT22;52812;48.960;9.108;2023-07-02T14:44:32;24.80;97.50
3086;DHT22;52812;48.960;9.108;2023-07-02T14:46:57;24.80;97.10
3086;DHT22;52812;48.960;9.108;2023-07-02T14:49:23;24.70;97.10
3086;DHT22;52812;48.960;9.108;2023-07-02T14:51:48;24.50;97.20
3086;DHT22;52812;48.960;9.108;2023-07-02T14:54:14;24.50;97.80
3086;DHT22;52812;48.960;9.108;2023-07-02T14:56:40;24.80;97.80
3086;DHT22;52812;48.960;9.108;2023-07-02T14:59:05;24.70;97.60
3086;DHT22;52812;48.960;9.108;2023-07-02T15:01:32;24.80;97.90
3086;DHT22;52812;48.960;9.108;2023-07-02T15:03:58;24.90;97.70
3086;DHT22;52812;48.960;9.108;2023-07-02T15:06:24;24.80;96.10
3086;DHT22;52812;48.960;9.108;2023-07-02T15:08:49;24.70;97.20
3086;DHT22;52812;48.960;9.108;2023-07-02T15:11:17;24.60;96.00
3086;DHT22;52812;48.960;9.108;2023-07-02T15:13:43;24.70;96.30
3086;DHT22;52812;48.960;9.108;2023-07-02T15:16:10;24.80;97.50
3086;DHT22;52812;48.960;9.108;2023-07-02T15:18:36;24.90;96.70
3086;DHT22;52812;48.960;9.108;2023-07-02T15:21:02;24.90;96.70
3086;DHT22;52812;48.960;9.108;2023-07-02T15:23:28;24.80;96.40
3086;DHT22;52812;48.960;9.108;2023-07-02T15:25:56;24.90;96.70
3086;DHT22;52812;48.960;9.108;2023-07-02T15:28:23;24.70;95.60
3086;DHT22;52812;48.960;9.108;2023-07-02T15:30:57;24.70;96.10
3086;DHT22;52812;48.960;9.108;2023-07-02T15:33:23;24.40;96.70
3086;DHT22;52812;48.960;9.108;2023-07-02T15:35:49;24.50;96.90
3086;DHT22;52812;48.960;9.108;2023-07-02T15:38:15;24.50;96.60
3086;DHT22;52812;48.960;9.108;2023-07-02T15:40:42;24.60;96.80
3086;DHT22;52812;48.960;9.108;2023-07-02T15:43:08;24.90;96.00
3086;DHT22;52812;48.960;9.108;2023-07-02T15:45:34;25.10;96.40
3086;DHT22;52812;48.960;9.108;2023-07-02T15:48:00;25.20;95.20